createdAt,value
2017-07-18T00:00:26.389Z,18.60
2017-07-18T00:02:52.729Z,18.60
2017-07-18T00:05:19.071Z,18.60
2017-07-18T00:07:45.399Z,18.30
2017-07-18T00:10:12.270Z,18.20
2017-07-18T00:12:38.619Z,18.20
2017-07-18T00:15:04.924Z,18.20
2017-07-18T00:17:31.243Z,18.20
2017-07-18T00:19:57.607Z,18.10
2017-07-18T00:22:23.912Z,18.10
2017-07-18T00:24:50.231Z,18.10
2017-07-18T00:27:16.604Z,18.10
2017-07-18T00:29:43.658Z,18.10
2017-07-18T00:32:10.028Z,18.10
2017-07-18T00:34:36.357Z,18.00
2017-07-18T00:37:02.667Z,18.00
2017-07-18T00:39:29.032Z,18.10
2017-07-18T00:41:55.335Z,18.10
2017-07-18T00:44:21.651Z,18.10
2017-07-18T00:46:48.035Z,18.00
2017-07-18T00:49:14.331Z,18.00
2017-07-18T00:51:40.661Z,18.00
2017-07-18T00:54:06.984Z,18.00
2017-07-18T00:56:33.365Z,18.10
2017-07-18T00:59:00.447Z,18.00
2017-07-18T01:01:26.779Z,18.00
2017-07-18T01:03:53.279Z,18.00
2017-07-18T01:06:19.608Z,17.90
2017-07-18T01:08:45.944Z,17.90
2017-07-18T01:11:12.264Z,17.80
2017-07-18T01:13:38.580Z,17.80
2017-07-18T01:16:04.932Z,17.90
2017-07-18T01:18:31.268Z,17.80
2017-07-18T01:20:57.592Z,17.70
2017-07-18T01:23:23.899Z,17.60
2017-07-18T01:25:50.219Z,17.50
2017-07-18T01:28:16.517Z,17.40
2017-07-18T01:30:42.829Z,17.40
2017-07-18T01:33:09.927Z,17.30
2017-07-18T01:35:36.260Z,17.30
2017-07-18T01:38:02.606Z,17.30
2017-07-18T01:40:28.929Z,17.20
2017-07-18T01:42:55.233Z,17.20
2017-07-18T01:45:21.620Z,17.20
2017-07-18T01:47:48.708Z,17.20
2017-07-18T01:50:15.068Z,17.20
2017-07-18T01:52:41.440Z,17.20
2017-07-18T01:55:07.775Z,17.20
2017-07-18T01:57:34.146Z,17.20
2017-07-18T02:00:00.500Z,17.10
2017-07-18T02:02:26.866Z,17.00
2017-07-18T02:04:53.190Z,16.90
2017-07-18T02:07:19.520Z,16.90
2017-07-18T02:09:45.852Z,16.90
2017-07-18T02:12:12.928Z,16.90
2017-07-18T02:14:39.233Z,16.90
2017-07-18T02:17:05.576Z,17.00
2017-07-18T02:19:32.623Z,17.00
2017-07-18T02:21:59.059Z,16.90
2017-07-18T02:24:25.373Z,16.90
2017-07-18T02:26:51.668Z,16.90
2017-07-18T02:29:17.999Z,16.80
2017-07-18T02:31:45.996Z,16.70
2017-07-18T02:34:12.329Z,16.70
2017-07-18T02:36:38.675Z,16.70
2017-07-18T02:39:04.996Z,16.70
2017-07-18T02:41:32.105Z,16.50
2017-07-18T02:43:58.412Z,16.50
2017-07-18T02:46:24.749Z,16.50
2017-07-18T02:48:51.061Z,16.40
2017-07-18T02:51:17.372Z,16.30
2017-07-18T02:53:44.732Z,16.10
2017-07-18T02:56:11.796Z,16.10
2017-07-18T02:58:38.156Z,16.10
2017-07-18T03:01:04.488Z,16.20
2017-07-18T03:03:30.820Z,16.20
2017-07-18T03:05:57.184Z,16.20
2017-07-18T03:08:24.252Z,16.20
2017-07-18T03:10:50.569Z,16.10
2017-07-18T03:13:16.903Z,16.20
2017-07-18T03:15:43.211Z,16.20
2017-07-18T03:18:09.544Z,16.10
2017-07-18T03:20:36.262Z,16.10
2017-07-18T03:23:02.572Z,16.10
2017-07-18T03:25:28.929Z,16.10
2017-07-18T03:27:56.035Z,16.00
2017-07-18T03:30:22.373Z,16.00
2017-07-18T03:32:48.801Z,16.00
2017-07-18T03:35:15.108Z,16.00
2017-07-18T03:37:41.415Z,16.00
2017-07-18T03:40:07.782Z,16.00
2017-07-18T03:42:34.133Z,15.90
2017-07-18T03:45:00.474Z,15.90
2017-07-18T03:47:26.771Z,15.80
2017-07-18T03:49:53.088Z,15.70
2017-07-18T03:52:19.417Z,15.80
2017-07-18T03:54:45.797Z,15.80
2017-07-18T03:57:12.139Z,15.80
2017-07-18T03:59:38.464Z,15.70
2017-07-18T04:02:04.793Z,15.50
2017-07-18T04:04:31.138Z,15.50
2017-07-18T04:06:57.469Z,15.30
2017-07-18T04:09:23.795Z,15.40
2017-07-18T04:11:50.124Z,15.50
2017-07-18T04:14:16.428Z,15.60
2017-07-18T04:16:43.049Z,15.70
2017-07-18T04:19:09.397Z,15.80
2017-07-18T04:21:35.688Z,15.80
2017-07-18T04:24:02.775Z,15.80
2017-07-18T04:26:29.126Z,15.80
2017-07-18T04:28:55.453Z,15.80
2017-07-18T04:31:21.756Z,15.80
2017-07-18T04:33:48.088Z,15.90
2017-07-18T04:36:14.412Z,16.00
2017-07-18T04:38:40.805Z,16.10
2017-07-18T04:41:07.880Z,16.50
2017-07-18T04:43:34.237Z,16.50
2017-07-18T04:46:00.655Z,16.60
2017-07-18T04:48:27.025Z,16.70
2017-07-18T04:50:53.341Z,16.90
2017-07-18T04:53:19.652Z,17.00
2017-07-18T04:55:45.975Z,17.10
2017-07-18T04:58:12.327Z,17.50
2017-07-18T05:00:38.685Z,17.50
2017-07-18T05:03:04.980Z,17.70
2017-07-18T05:05:31.352Z,17.80
2017-07-18T05:07:57.659Z,18.10
2017-07-18T05:10:23.983Z,18.20
2017-07-18T05:12:50.300Z,18.30
2017-07-18T05:15:17.477Z,18.40
2017-07-18T05:17:43.792Z,18.60
2017-07-18T05:20:10.108Z,18.80
2017-07-18T05:22:36.451Z,19.00
2017-07-18T05:25:02.780Z,19.20
2017-07-18T05:27:29.092Z,19.40
2017-07-18T05:29:55.448Z,19.50
2017-07-18T05:32:21.756Z,19.60
2017-07-18T05:34:48.081Z,19.80
2017-07-18T05:37:14.404Z,20.00
2017-07-18T05:39:40.719Z,20.20
2017-07-18T05:42:07.055Z,20.40
2017-07-18T05:44:33.362Z,20.80
2017-07-18T05:46:59.684Z,20.90
2017-07-18T05:49:26.036Z,21.10
2017-07-18T05:51:52.343Z,21.20
2017-07-18T05:54:18.687Z,21.40
2017-07-18T05:56:45.045Z,21.50
2017-07-18T05:59:12.091Z,21.70
2017-07-18T06:01:38.416Z,21.90
2017-07-18T06:04:04.780Z,22.00
2017-07-18T06:06:31.125Z,22.20
2017-07-18T06:08:57.433Z,22.40
2017-07-18T06:11:23.771Z,22.50
2017-07-18T06:13:50.059Z,22.60
2017-07-18T06:16:16.373Z,22.80
2017-07-18T06:18:43.448Z,23.00
2017-07-18T06:21:09.788Z,23.00
2017-07-18T06:23:36.088Z,23.10
2017-07-18T06:26:02.468Z,23.00
2017-07-18T06:28:28.776Z,23.20
2017-07-18T06:30:55.073Z,23.40
2017-07-18T06:33:22.149Z,24.00
2017-07-18T06:35:48.504Z,23.90
2017-07-18T06:38:14.809Z,24.10
2017-07-18T06:40:41.133Z,24.00
2017-07-18T06:43:07.444Z,24.10
2017-07-18T06:45:33.772Z,24.20
2017-07-18T06:48:00.841Z,24.60
2017-07-18T06:50:27.229Z,24.60
2017-07-18T06:52:53.559Z,24.90
2017-07-18T06:55:19.865Z,25.10
2017-07-18T06:57:46.194Z,25.40
2017-07-18T07:00:12.500Z,25.80
2017-07-18T07:02:38.853Z,26.00
2017-07-18T07:05:05.189Z,26.10
2017-07-18T07:07:31.549Z,26.10
2017-07-18T07:09:57.891Z,26.40
2017-07-18T07:12:24.269Z,26.60
2017-07-18T07:14:50.584Z,26.80
2017-07-18T07:17:16.927Z,27.20
2017-07-18T07:19:43.239Z,27.50
2017-07-18T07:22:09.578Z,27.80
2017-07-18T07:24:35.954Z,28.30
2017-07-18T07:27:02.252Z,28.60
2017-07-18T07:29:28.580Z,28.80
2017-07-18T07:31:54.912Z,29.00
2017-07-18T07:34:21.226Z,29.20
2017-07-18T07:36:47.568Z,29.20
2017-07-18T07:39:13.904Z,29.40
2017-07-18T07:41:40.204Z,29.20
2017-07-18T07:44:06.528Z,29.70
2017-07-18T07:46:32.860Z,30.20
2017-07-18T07:48:59.172Z,30.40
2017-07-18T07:51:26.247Z,30.50
2017-07-18T07:53:52.556Z,30.40
2017-07-18T07:56:19.659Z,31.10
2017-07-18T07:58:45.988Z,31.10
2017-07-18T08:01:12.304Z,31.20
2017-07-18T08:03:38.607Z,31.40
2017-07-18T08:06:04.963Z,32.10
2017-07-18T08:08:31.254Z,32.40
2017-07-18T08:10:58.305Z,32.50
2017-07-18T08:13:25.811Z,32.10
2017-07-18T08:15:52.125Z,32.10
2017-07-18T08:18:18.431Z,32.80
2017-07-18T08:20:44.789Z,33.10
2017-07-18T08:23:11.116Z,33.50
2017-07-18T08:25:37.429Z,34.00
2017-07-18T08:28:03.756Z,34.40
2017-07-18T08:30:30.062Z,34.70
2017-07-18T08:32:57.125Z,33.40
2017-07-18T08:35:23.498Z,33.30
2017-07-18T08:37:49.871Z,31.60
2017-07-18T08:40:16.906Z,30.80
2017-07-18T08:42:44.029Z,30.80
2017-07-18T08:45:10.331Z,31.10
2017-07-18T08:47:36.656Z,28.60
2017-07-18T08:50:03.008Z,29.40
2017-07-18T08:52:29.352Z,31.20
2017-07-18T08:54:55.665Z,32.20
2017-07-18T08:57:22.024Z,32.40
2017-07-18T08:59:48.327Z,33.00
2017-07-18T09:02:14.648Z,33.90
2017-07-18T09:04:40.979Z,35.20
2017-07-18T09:07:07.289Z,32.50
2017-07-18T09:09:33.616Z,31.90
2017-07-18T09:11:59.959Z,30.40
2017-07-18T09:14:26.318Z,30.80
2017-07-18T09:16:52.641Z,32.30
2017-07-18T09:19:18.965Z,32.30
2017-07-18T09:21:45.295Z,31.40
2017-07-18T09:24:11.703Z,31.40
2017-07-18T09:26:37.992Z,32.40
2017-07-18T09:29:05.060Z,33.80
2017-07-18T09:31:32.144Z,34.80
2017-07-18T09:33:58.455Z,34.80
2017-07-18T09:36:24.751Z,34.00
2017-07-18T09:38:51.064Z,35.80
2017-07-18T09:41:17.367Z,37.00
2017-07-18T09:43:43.703Z,36.10
2017-07-18T09:46:10.028Z,36.10
2017-07-18T09:48:36.335Z,35.00
2017-07-18T09:51:02.715Z,34.70
2017-07-18T09:53:29.404Z,35.90
2017-07-18T09:55:55.770Z,35.70
2017-07-18T09:58:22.199Z,32.10
2017-07-18T10:00:48.567Z,29.80
2017-07-18T10:03:14.868Z,29.60
2017-07-18T10:05:41.231Z,30.80
2017-07-18T10:08:07.556Z,31.90
2017-07-18T10:10:33.860Z,33.70
2017-07-18T10:13:00.204Z,35.20
2017-07-18T10:15:26.524Z,35.20
2017-07-18T10:17:52.828Z,33.70
2017-07-18T10:20:19.159Z,33.30
2017-07-18T10:22:45.446Z,34.00
2017-07-18T10:25:11.765Z,34.00
2017-07-18T10:27:38.099Z,35.50
2017-07-18T10:30:04.460Z,36.80
2017-07-18T10:32:30.756Z,35.40
2017-07-18T10:34:57.079Z,35.10
2017-07-18T10:37:23.386Z,33.60
2017-07-18T10:39:49.738Z,33.60
2017-07-18T10:42:16.035Z,32.00
2017-07-18T10:44:42.335Z,33.10
2017-07-18T10:47:08.655Z,34.60
2017-07-18T10:49:35.763Z,35.90
2017-07-18T10:52:02.086Z,35.90
2017-07-18T10:54:28.397Z,36.60
2017-07-18T10:56:54.712Z,37.10
2017-07-18T10:59:21.011Z,35.40
2017-07-18T11:01:48.104Z,34.10
2017-07-18T11:04:14.412Z,34.00
2017-07-18T11:06:40.739Z,33.60
2017-07-18T11:09:07.083Z,32.70
2017-07-18T11:11:33.404Z,31.70
2017-07-18T11:13:59.720Z,33.10
2017-07-18T11:16:26.819Z,35.20
2017-07-18T11:18:53.148Z,35.20
2017-07-18T11:21:19.493Z,35.90
2017-07-18T11:23:45.873Z,36.20
2017-07-18T11:26:12.168Z,35.40
2017-07-18T11:28:39.226Z,35.90
2017-07-18T11:31:05.582Z,35.90
2017-07-18T11:33:32.215Z,35.30
2017-07-18T11:35:58.509Z,33.60
2017-07-18T11:38:24.853Z,32.20
2017-07-18T11:40:51.968Z,31.50
2017-07-18T11:43:18.349Z,31.50
2017-07-18T11:45:44.664Z,31.70
2017-07-18T11:48:11.007Z,31.40
2017-07-18T11:50:38.096Z,31.80
2017-07-18T11:53:04.436Z,31.70
2017-07-18T11:55:30.806Z,30.90
2017-07-18T11:57:57.880Z,31.60
2017-07-18T12:00:24.213Z,31.60
2017-07-18T12:02:50.516Z,31.80
2017-07-18T12:05:17.579Z,31.30
2017-07-18T12:07:43.899Z,31.30
2017-07-18T12:10:11.040Z,32.30
2017-07-18T12:12:38.087Z,32.30
2017-07-18T12:15:05.127Z,32.20
2017-07-18T12:17:31.488Z,32.20
2017-07-18T12:19:57.820Z,32.30
2017-07-18T12:22:24.152Z,30.40
2017-07-18T12:24:50.504Z,31.10
2017-07-18T12:27:16.850Z,31.10
2017-07-18T12:29:43.156Z,31.40
2017-07-18T12:32:09.480Z,31.60
2017-07-18T12:34:35.815Z,31.00
2017-07-18T12:37:02.119Z,30.80
2017-07-18T12:39:28.476Z,31.30
2017-07-18T12:41:54.840Z,31.80
2017-07-18T12:44:21.148Z,30.90
2017-07-18T12:46:47.466Z,30.20
2017-07-18T12:49:13.795Z,30.70
2017-07-18T12:51:40.133Z,31.30
2017-07-18T12:54:06.446Z,31.20
2017-07-18T12:56:32.800Z,30.50
2017-07-18T12:58:59.108Z,29.70
2017-07-18T13:01:25.400Z,29.50
2017-07-18T13:03:51.750Z,29.30
2017-07-18T13:06:18.807Z,30.00
2017-07-18T13:08:45.132Z,30.00
2017-07-18T13:11:12.212Z,29.70
2017-07-18T13:13:38.521Z,29.70
2017-07-18T13:16:04.843Z,30.20
2017-07-18T13:18:31.903Z,31.30
2017-07-18T13:20:58.269Z,31.30
2017-07-18T13:23:24.577Z,31.10
2017-07-18T13:25:50.900Z,30.70
2017-07-18T13:28:17.231Z,31.00
2017-07-18T13:30:43.520Z,31.30
2017-07-18T13:33:10.575Z,30.60
2017-07-18T13:35:36.931Z,30.60
2017-07-18T13:38:03.276Z,30.40
2017-07-18T13:40:29.648Z,30.20
2017-07-18T13:42:55.949Z,30.00
2017-07-18T13:45:22.383Z,29.40
2017-07-18T13:47:48.684Z,29.30
2017-07-18T13:50:15.028Z,29.10
2017-07-18T13:52:41.332Z,28.80
2017-07-18T13:55:07.640Z,28.80
2017-07-18T13:57:33.972Z,29.00
2017-07-18T14:00:01.035Z,29.50
2017-07-18T14:02:27.399Z,29.50
2017-07-18T14:04:53.722Z,29.70
2017-07-18T14:07:20.017Z,29.60
2017-07-18T14:09:47.099Z,30.00
2017-07-18T14:12:13.400Z,29.90
2017-07-18T14:14:40.428Z,28.70
2017-07-18T14:17:07.512Z,28.90
2017-07-18T14:19:33.864Z,28.90
2017-07-18T14:22:00.164Z,29.00
2017-07-18T14:24:26.500Z,29.00
2017-07-18T14:26:52.813Z,28.50
2017-07-18T14:29:19.844Z,29.10
2017-07-18T14:31:46.201Z,29.10
2017-07-18T14:34:12.500Z,29.30
2017-07-18T14:36:39.596Z,29.00
2017-07-18T14:39:05.924Z,29.00
2017-07-18T14:41:32.294Z,29.50
2017-07-18T14:43:58.627Z,29.60
2017-07-18T14:46:24.969Z,29.30
2017-07-18T14:48:51.259Z,29.50
2017-07-18T14:51:17.583Z,29.90
2017-07-18T14:53:43.871Z,30.20
2017-07-18T14:56:10.488Z,30.20
2017-07-18T14:58:36.859Z,30.10
2017-07-18T15:01:03.164Z,29.60
2017-07-18T15:03:29.495Z,29.10
2017-07-18T15:05:56.569Z,29.60
2017-07-18T15:08:22.908Z,29.60
2017-07-18T15:10:49.218Z,29.80
2017-07-18T15:13:15.528Z,29.90
2017-07-18T15:15:42.615Z,30.10
2017-07-18T15:18:08.907Z,30.00
2017-07-18T15:20:35.951Z,29.70
2017-07-18T15:23:03.036Z,29.90
2017-07-18T15:25:29.431Z,29.90
2017-07-18T15:27:55.974Z,29.90
2017-07-18T15:30:22.327Z,29.50
2017-07-18T15:32:48.680Z,29.70
2017-07-18T15:35:15.011Z,29.50
2017-07-18T15:37:41.355Z,29.50
2017-07-18T15:40:07.660Z,29.60
2017-07-18T15:42:33.968Z,29.70
2017-07-18T15:45:00.300Z,29.60
2017-07-18T15:47:26.616Z,29.30
2017-07-18T15:49:53.718Z,28.80
2017-07-18T15:52:20.015Z,28.80
2017-07-18T15:54:46.333Z,28.40
2017-07-18T15:57:12.685Z,28.20
2017-07-18T15:59:38.968Z,28.00
2017-07-18T16:02:05.263Z,28.10
2017-07-18T16:04:31.605Z,28.40
2017-07-18T16:06:57.912Z,28.80
2017-07-18T16:09:24.258Z,28.20
2017-07-18T16:11:50.605Z,28.00
2017-07-18T16:14:16.932Z,28.00
2017-07-18T16:16:43.248Z,28.20
2017-07-18T16:19:09.595Z,28.40
2017-07-18T16:21:35.943Z,28.40
2017-07-18T16:24:02.272Z,28.20
2017-07-18T16:26:28.569Z,27.80
2017-07-18T16:28:54.928Z,27.70
2017-07-18T16:31:21.243Z,27.10
2017-07-18T16:33:47.632Z,27.20
2017-07-18T16:36:13.996Z,27.20
2017-07-18T16:38:40.332Z,27.00
2017-07-18T16:41:06.664Z,26.90
2017-07-18T16:43:32.980Z,26.90
2017-07-18T16:45:59.330Z,26.90
2017-07-18T16:48:25.620Z,26.70
2017-07-18T16:50:51.943Z,26.60
2017-07-18T16:53:18.280Z,26.50
2017-07-18T16:55:44.684Z,26.20
2017-07-18T16:58:11.004Z,26.10
2017-07-18T17:00:37.337Z,26.20
2017-07-18T17:03:03.720Z,26.10
2017-07-18T17:05:30.061Z,26.00
2017-07-18T17:07:56.381Z,25.60
2017-07-18T17:10:22.715Z,25.50
2017-07-18T17:12:49.031Z,25.50
2017-07-18T17:15:15.377Z,25.40
2017-07-18T17:17:41.755Z,25.50
2017-07-18T17:20:08.795Z,25.20
2017-07-18T17:22:35.840Z,25.20
2017-07-18T17:25:02.931Z,25.00
2017-07-18T17:27:29.236Z,25.00
2017-07-18T17:29:55.557Z,24.90
2017-07-18T17:32:21.937Z,24.90
2017-07-18T17:34:48.251Z,24.80
2017-07-18T17:37:14.537Z,24.40
2017-07-18T17:39:41.673Z,24.00
2017-07-18T17:42:08.724Z,23.80
2017-07-18T17:44:35.775Z,23.80
2017-07-18T17:47:02.924Z,24.00
2017-07-18T17:49:29.995Z,23.80
2017-07-18T17:51:56.294Z,23.80
2017-07-18T17:54:22.636Z,23.30
2017-07-18T17:56:49.710Z,21.90
2017-07-18T17:59:16.020Z,21.90
2017-07-18T18:01:42.401Z,21.90
2017-07-18T18:04:08.721Z,22.00
2017-07-18T18:06:35.880Z,22.10
2017-07-18T18:09:02.248Z,22.00
2017-07-18T18:11:28.598Z,21.90
2017-07-18T18:13:54.996Z,21.80
2017-07-18T18:16:21.306Z,21.70
2017-07-18T18:18:47.650Z,21.80
2017-07-18T18:21:14.037Z,22.00
2017-07-18T18:23:40.368Z,22.30
2017-07-18T18:26:06.715Z,22.50
2017-07-18T18:28:33.071Z,22.60
2017-07-18T18:30:59.411Z,22.70
2017-07-18T18:33:27.353Z,22.10
2017-07-18T18:35:53.665Z,22.00
2017-07-18T18:38:19.977Z,22.00
2017-07-18T18:40:46.412Z,21.90
2017-07-18T18:43:12.736Z,21.70
2017-07-18T18:45:39.048Z,21.70
2017-07-18T18:48:06.132Z,21.30
2017-07-18T18:50:32.460Z,21.30
2017-07-18T18:52:58.798Z,21.20
2017-07-18T18:55:25.145Z,21.20
2017-07-18T18:57:51.536Z,21.00
2017-07-18T19:00:17.883Z,21.10
2017-07-18T19:02:44.245Z,21.30
2017-07-18T19:05:10.606Z,21.50
2017-07-18T19:07:37.697Z,21.50
2017-07-18T19:10:04.084Z,21.50
2017-07-18T19:12:31.151Z,21.40
2017-07-18T19:14:57.823Z,21.40
2017-07-18T19:17:24.176Z,21.00
2017-07-18T19:19:50.519Z,21.10
2017-07-18T19:22:16.857Z,21.30
2017-07-18T19:24:43.925Z,21.30
2017-07-18T19:27:10.292Z,21.30
2017-07-18T19:29:36.635Z,21.40
2017-07-18T19:32:02.965Z,21.10
2017-07-18T19:34:29.317Z,21.20
2017-07-18T19:36:55.627Z,21.10
2017-07-18T19:39:21.948Z,21.10
2017-07-18T19:41:48.359Z,21.00
2017-07-18T19:44:14.735Z,20.90
2017-07-18T19:46:41.059Z,20.60
2017-07-18T19:49:07.403Z,20.50
2017-07-18T19:51:34.461Z,20.40
2017-07-18T19:54:01.520Z,20.30
2017-07-18T19:56:27.853Z,20.30
2017-07-18T19:58:54.419Z,20.40
2017-07-18T20:01:20.780Z,20.50
2017-07-18T20:03:47.100Z,20.50
2017-07-18T20:06:13.433Z,20.90
2017-07-18T20:08:39.770Z,21.00
2017-07-18T20:11:06.082Z,21.10
2017-07-18T20:13:32.397Z,20.90
2017-07-18T20:15:58.715Z,20.80
2017-07-18T20:18:25.011Z,20.40
2017-07-18T20:20:52.106Z,20.40
2017-07-18T20:23:18.430Z,20.40
2017-07-18T20:25:44.876Z,20.20
2017-07-18T20:28:11.221Z,20.10
2017-07-18T20:30:37.512Z,20.10
2017-07-18T20:33:03.863Z,20.20
2017-07-18T20:35:30.200Z,20.30
2017-07-18T20:37:56.524Z,20.40
2017-07-18T20:40:22.880Z,20.40
2017-07-18T20:42:49.188Z,20.60
2017-07-18T20:45:15.584Z,20.60
2017-07-18T20:47:41.884Z,20.60
2017-07-18T20:50:08.188Z,20.40
2017-07-18T20:52:34.524Z,20.20
2017-07-18T20:55:00.838Z,20.20
2017-07-18T20:57:27.268Z,20.20
2017-07-18T20:59:53.573Z,20.20
2017-07-18T21:02:19.886Z,20.30
2017-07-18T21:04:46.247Z,20.30
2017-07-18T21:07:12.539Z,20.20
2017-07-18T21:09:38.863Z,20.00
2017-07-18T21:12:05.202Z,19.80
2017-07-18T21:14:32.239Z,19.80
2017-07-18T21:16:59.296Z,19.80
2017-07-18T21:19:25.640Z,19.80
2017-07-18T21:21:51.980Z,19.90
2017-07-18T21:24:18.275Z,19.80
2017-07-18T21:26:44.616Z,19.80
2017-07-18T21:29:10.920Z,19.80
2017-07-18T21:31:37.488Z,19.80
2017-07-18T21:34:03.851Z,19.90
2017-07-18T21:36:30.237Z,19.80
2017-07-18T21:38:56.553Z,19.80
2017-07-18T21:41:22.885Z,19.90
2017-07-18T21:43:49.996Z,19.90
2017-07-18T21:46:16.380Z,19.90
2017-07-18T21:48:42.773Z,20.00
2017-07-18T21:51:09.100Z,19.90
2017-07-18T21:53:35.428Z,19.90
2017-07-18T21:56:01.761Z,19.90
2017-07-18T21:58:28.082Z,20.00
2017-07-18T22:00:54.428Z,20.00
2017-07-18T22:03:20.748Z,20.00
2017-07-18T22:05:47.115Z,20.00
2017-07-18T22:08:13.472Z,20.00
2017-07-18T22:10:39.771Z,20.00
2017-07-18T22:13:06.096Z,19.90
2017-07-18T22:15:32.464Z,19.80
2017-07-18T22:17:58.776Z,19.60
2017-07-18T22:20:25.123Z,19.40
2017-07-18T22:22:51.445Z,19.20
2017-07-18T22:25:17.741Z,19.00
2017-07-18T22:27:44.156Z,19.00
2017-07-18T22:30:10.471Z,18.90
2017-07-18T22:32:36.779Z,18.70
2017-07-18T22:35:03.104Z,18.70
2017-07-18T22:37:29.400Z,18.80
2017-07-18T22:39:55.751Z,18.60
2017-07-18T22:42:22.852Z,18.50
2017-07-18T22:44:49.153Z,18.50
2017-07-18T22:47:15.512Z,18.60
2017-07-18T22:49:41.855Z,18.60
2017-07-18T22:52:08.166Z,18.60
2017-07-18T22:54:34.508Z,18.60
2017-07-18T22:57:00.824Z,18.50
2017-07-18T22:59:27.160Z,18.40
2017-07-18T23:01:53.467Z,18.50
2017-07-18T23:04:19.772Z,18.50
2017-07-18T23:06:46.119Z,18.40
2017-07-18T23:09:12.459Z,18.40
2017-07-18T23:11:38.764Z,18.30
2017-07-18T23:14:05.108Z,18.40
2017-07-18T23:16:31.448Z,18.40
2017-07-18T23:18:57.789Z,18.40
2017-07-18T23:21:24.129Z,18.50
2017-07-18T23:23:50.450Z,18.50
2017-07-18T23:26:16.739Z,18.50
2017-07-18T23:28:43.775Z,18.60
2017-07-18T23:31:10.107Z,18.50
2017-07-18T23:33:36.436Z,18.50
2017-07-18T23:36:02.736Z,18.50
2017-07-18T23:38:29.039Z,18.50
2017-07-18T23:40:55.387Z,18.50
2017-07-18T23:43:21.695Z,18.40
2017-07-18T23:45:47.986Z,18.50
2017-07-18T23:48:14.312Z,18.60
2017-07-18T23:50:40.620Z,18.60
2017-07-18T23:53:06.908Z,18.60
2017-07-18T23:55:33.244Z,18.60
2017-07-18T23:57:59.543Z,18.70
